Basing, United Kingdom
Current Conditions -  °F | °C
As of 11:50 AM on Saturday 25 Oct 2014 (Local Time) from EGVO Reporting Station
Broken Clouds Broken Clouds  
Wind Chill: 57°   Ceiling: 4000
Heat Index: 57°   Visibility: 6mi
Dew Point: 45°   Wind: 12mph
Humidity: 63%   Direction: 230°SW
Pressure: 30.09"   Gusts: NA
Location:  51.27°N, 1.03°W
Report Text: EGVO 251050Z 23010KT 9999 BKN040 14/07 Q1019 BLU
Loading
Personal Weather Stations






























Interactive Weather Map
Tropical Storm Tracking
New forecast layout! Learn more

10-Day Weather Forecast

Advertisements
Track Severe Weather on mobile